sensor_id;sensor_type;location;lat;lon;timestamp;P1;durP1;ratioP1;P2;durP2;ratioP2
52858;SDS011;38721;53.098;6.596;2023-04-15T00:00:08;12.88;;;6.40;;
52858;SDS011;38721;53.098;6.596;2023-04-15T00:02:34;10.48;;;6.25;;
52858;SDS011;38721;53.098;6.596;2023-04-15T00:05:01;12.75;;;7.40;;
52858;SDS011;38721;53.098;6.596;2023-04-15T00:07:27;13.02;;;6.95;;
52858;SDS011;38721;53.098;6.596;2023-04-15T00:09:53;10.93;;;6.10;;
52858;SDS011;38721;53.098;6.596;2023-04-15T00:12:22;10.30;;;6.22;;
52858;SDS011;38721;53.098;6.596;2023-04-15T00:14:51;12.05;;;6.82;;
52858;SDS011;38721;53.098;6.596;2023-04-15T00:17:17;10.88;;;6.28;;
52858;SDS011;38721;53.098;6.596;2023-04-15T00:19:42;12.07;;;6.38;;
52858;SDS011;38721;53.098;6.596;2023-04-15T00:22:11;11.70;;;7.05;;
52858;SDS011;38721;53.098;6.596;2023-04-15T00:24:42;14.55;;;6.68;;
52858;SDS011;38721;53.098;6.596;2023-04-15T00:27:07;11.52;;;6.97;;
52858;SDS011;38721;53.098;6.596;2023-04-15T00:29:33;16.23;;;7.13;;
52858;SDS011;38721;53.098;6.596;2023-04-15T00:31:59;10.82;;;6.78;;
52858;SDS011;38721;53.098;6.596;2023-04-15T00:34:25;14.27;;;7.63;;
52858;SDS011;38721;53.098;6.596;2023-04-15T00:36:52;12.02;;;7.57;;
52858;SDS011;38721;53.098;6.596;2023-04-15T00:39:18;12.10;;;7.70;;
52858;SDS011;38721;53.098;6.596;2023-04-15T00:41:44;15.27;;;7.57;;
52858;SDS011;38721;53.098;6.596;2023-04-15T00:44:10;11.43;;;7.80;;
52858;SDS011;38721;53.098;6.596;2023-04-15T00:46:36;15.43;;;7.97;;
52858;SDS011;38721;53.098;6.596;2023-04-15T00:49:03;14.23;;;8.60;;
52858;SDS011;38721;53.098;6.596;2023-04-15T00:51:30;14.23;;;8.82;;
52858;SDS011;38721;53.098;6.596;2023-04-15T00:53:58;13.23;;;7.72;;
52858;SDS011;38721;53.098;6.596;2023-04-15T00:56:24;10.50;;;7.75;;
52858;SDS011;38721;53.098;6.596;2023-04-15T00:58:52;15.05;;;8.65;;
52858;SDS011;38721;53.098;6.596;2023-04-15T01:01:19;14.60;;;7.82;;
52858;SDS011;38721;53.098;6.596;2023-04-15T01:03:46;16.83;;;8.13;;
52858;SDS011;38721;53.098;6.596;2023-04-15T01:06:16;13.13;;;8.32;;
52858;SDS011;38721;53.098;6.596;2023-04-15T01:08:43;15.25;;;8.10;;
52858;SDS011;38721;53.098;6.596;2023-04-15T01:11:09;16.40;;;9.70;;
52858;SDS011;38721;53.098;6.596;2023-04-15T01:13:37;12.95;;;8.20;;
52858;SDS011;38721;53.098;6.596;2023-04-15T01:16:03;15.63;;;8.30;;
52858;SDS011;38721;53.098;6.596;2023-04-15T01:18:29;15.63;;;8.80;;
52858;SDS011;38721;53.098;6.596;2023-04-15T01:20:55;13.35;;;8.10;;
52858;SDS011;38721;53.098;6.596;2023-04-15T01:23:21;13.40;;;9.10;;
52858;SDS011;38721;53.098;6.596;2023-04-15T01:25:47;13.38;;;7.97;;
52858;SDS011;38721;53.098;6.596;2023-04-15T01:28:14;12.93;;;8.57;;
52858;SDS011;38721;53.098;6.596;2023-04-15T01:30:40;13.82;;;9.35;;
52858;SDS011;38721;53.098;6.596;2023-04-15T01:33:05;16.80;;;9.10;;
52858;SDS011;38721;53.098;6.596;2023-04-15T01:35:31;13.15;;;8.25;;
52858;SDS011;38721;53.098;6.596;2023-04-15T01:38:07;14.20;;;9.23;;
52858;SDS011;38721;53.098;6.596;2023-04-15T01:40:34;12.48;;;8.45;;
52858;SDS011;38721;53.098;6.596;2023-04-15T01:43:00;13.15;;;9.02;;
52858;SDS011;38721;53.098;6.596;2023-04-15T01:45:29;16.45;;;9.70;;
52858;SDS011;38721;53.098;6.596;2023-04-15T01:47:55;14.27;;;8.73;;
52858;SDS011;38721;53.098;6.596;2023-04-15T01:50:20;16.25;;;8.95;;
52858;SDS011;38721;53.098;6.596;2023-04-15T01:52:46;14.55;;;8.98;;
52858;SDS011;38721;53.098;6.596;2023-04-15T01:55:12;14.85;;;9.23;;
52858;SDS011;38721;53.098;6.596;2023-04-15T01:57:38;14.88;;;9.25;;
52858;SDS011;38721;53.098;6.596;2023-04-15T02:00:07;17.42;;;9.88;;
52858;SDS011;38721;53.098;6.596;2023-04-15T02:02:33;12.27;;;8.63;;
52858;SDS011;38721;53.098;6.596;2023-04-15T02:04:59;14.15;;;8.85;;
52858;SDS011;38721;53.098;6.596;2023-04-15T02:07:25;16.33;;;9.90;;
52858;SDS011;38721;53.098;6.596;2023-04-15T02:09:53;16.40;;;9.70;;
52858;SDS011;38721;53.098;6.596;2023-04-15T02:12:19;14.30;;;9.32;;
52858;SDS011;38721;53.098;6.596;2023-04-15T02:14:47;14.02;;;9.35;;
52858;SDS011;38721;53.098;6.596;2023-04-15T02:17:13;16.75;;;10.38;;
52858;SDS011;38721;53.098;6.596;2023-04-15T02:19:38;15.60;;;9.77;;
52858;SDS011;38721;53.098;6.596;2023-04-15T02:22:05;15.18;;;9.52;;
52858;SDS011;38721;53.098;6.596;2023-04-15T02:24:33;14.68;;;9.35;;
52858;SDS011;38721;53.098;6.596;2023-04-15T02:26:59;16.90;;;9.95;;
52858;SDS011;38721;53.098;6.596;2023-04-15T02:29:30;17.55;;;10.73;;
52858;SDS011;38721;53.098;6.596;2023-04-15T02:31:56;16.23;;;9.88;;
52858;SDS011;38721;53.098;6.596;2023-04-15T02:34:22;21.27;;;11.23;;
52858;SDS011;38721;53.098;6.596;2023-04-15T02:36:47;16.08;;;9.68;;
52858;SDS011;38721;53.098;6.596;2023-04-15T02:39:13;16.42;;;10.52;;
52858;SDS011;38721;53.098;6.596;2023-04-15T02:41:41;15.52;;;10.30;;
52858;SDS011;38721;53.098;6.596;2023-04-15T02:44:07;17.08;;;11.38;;
52858;SDS011;38721;53.098;6.596;2023-04-15T02:46:33;18.45;;;11.75;;
52858;SDS011;38721;53.098;6.596;2023-04-15T02:48:59;17.33;;;11.13;;
52858;SDS011;38721;53.098;6.596;2023-04-15T02:51:29;16.33;;;10.63;;
52858;SDS011;38721;53.098;6.596;2023-04-15T02:53:55;18.63;;;11.60;;
52858;SDS011;38721;53.098;6.596;2023-04-15T02:56:22;18.45;;;11.18;;
52858;SDS011;38721;53.098;6.596;2023-04-15T02:58:48;19.30;;;11.55;;
52858;SDS011;38721;53.098;6.596;2023-04-15T03:01:14;18.58;;;11.57;;
52858;SDS011;38721;53.098;6.596;2023-04-15T03:03:40;17.90;;;11.57;;
52858;SDS011;38721;53.098;6.596;2023-04-15T03:06:06;17.33;;;11.10;;
52858;SDS011;38721;53.098;6.596;2023-04-15T03:08:33;17.58;;;11.32;;
52858;SDS011;38721;53.098;6.596;2023-04-15T03:10:58;17.02;;;11.57;;
52858;SDS011;38721;53.098;6.596;2023-04-15T03:13:27;18.75;;;12.13;;
52858;SDS011;38721;53.098;6.596;2023-04-15T03:15:53;18.92;;;11.57;;
52858;SDS011;38721;53.098;6.596;2023-04-15T03:18:19;16.80;;;11.43;;
52858;SDS011;38721;53.098;6.596;2023-04-15T03:20:45;16.30;;;11.63;;
52858;SDS011;38721;53.098;6.596;2023-04-15T03:23:11;19.25;;;11.18;;
52858;SDS011;38721;53.098;6.596;2023-04-15T03:25:36;21.58;;;12.75;;
52858;SDS011;38721;53.098;6.596;2023-04-15T03:28:02;19.00;;;13.10;;
52858;SDS011;38721;53.098;6.596;2023-04-15T03:30:28;23.15;;;13.50;;
52858;SDS011;38721;53.098;6.596;2023-04-15T03:32:57;19.52;;;12.25;;
52858;SDS011;38721;53.098;6.596;2023-04-15T03:35:25;23.95;;;14.02;;
52858;SDS011;38721;53.098;6.596;2023-04-15T03:37:51;22.70;;;13.38;;
52858;SDS011;38721;53.098;6.596;2023-04-15T03:40:16;22.45;;;14.10;;
52858;SDS011;38721;53.098;6.596;2023-04-15T03:42:42;21.90;;;13.98;;
52858;SDS011;38721;53.098;6.596;2023-04-15T03:45:07;24.58;;;13.50;;
52858;SDS011;38721;53.098;6.596;2023-04-15T03:47:36;20.90;;;12.70;;
52858;SDS011;38721;53.098;6.596;2023-04-15T03:50:02;23.77;;;14.15;;
52858;SDS011;38721;53.098;6.596;2023-04-15T03:52:28;25.15;;;14.07;;
52858;SDS011;38721;53.098;6.596;2023-04-15T03:54:54;23.67;;;14.65;;
52858;SDS011;38721;53.098;6.596;2023-04-15T03:57:20;27.70;;;15.52;;
52858;SDS011;38721;53.098;6.596;2023-04-15T03:59:45;26.42;;;15.75;;
52858;SDS011;38721;53.098;6.596;2023-04-15T04:02:11;26.92;;;15.93;;
52858;SDS011;38721;53.098;6.596;2023-04-15T04:04:37;26.58;;;15.80;;
52858;SDS011;38721;53.098;6.596;2023-04-15T04:07:02;28.02;;;16.63;;
52858;SDS011;38721;53.098;6.596;2023-04-15T04:09:28;27.63;;;16.50;;
52858;SDS011;38721;53.098;6.596;2023-04-15T04:11:54;29.75;;;17.27;;
52858;SDS011;38721;53.098;6.596;2023-04-15T04:14:20;30.95;;;17.25;;
52858;SDS011;38721;53.098;6.596;2023-04-15T04:16:50;29.55;;;16.85;;
52858;SDS011;38721;53.098;6.596;2023-04-15T04:19:16;31.77;;;16.73;;
52858;SDS011;38721;53.098;6.596;2023-04-15T04:21:45;34.72;;;18.48;;
52858;SDS011;38721;53.098;6.596;2023-04-15T04:24:10;29.70;;;18.08;;
52858;SDS011;38721;53.098;6.596;2023-04-15T04:26:36;33.00;;;17.48;;
52858;SDS011;38721;53.098;6.596;2023-04-15T04:29:02;29.77;;;16.98;;
52858;SDS011;38721;53.098;6.596;2023-04-15T04:31:27;36.38;;;18.05;;
52858;SDS011;38721;53.098;6.596;2023-04-15T04:33:53;31.00;;;17.23;;
52858;SDS011;38721;53.098;6.596;2023-04-15T04:36:19;33.78;;;17.80;;
52858;SDS011;38721;53.098;6.596;2023-04-15T04:38:48;30.60;;;17.85;;
52858;SDS011;38721;53.098;6.596;2023-04-15T04:41:13;36.35;;;18.92;;
52858;SDS011;38721;53.098;6.596;2023-04-15T04:43:39;32.72;;;17.98;;
52858;SDS011;38721;53.098;6.596;2023-04-15T04:46:05;39.60;;;19.13;;
52858;SDS011;38721;53.098;6.596;2023-04-15T04:48:30;33.92;;;18.65;;
52858;SDS011;38721;53.098;6.596;2023-04-15T04:50:56;35.95;;;18.70;;
52858;SDS011;38721;53.098;6.596;2023-04-15T04:53:22;35.85;;;18.85;;
52858;SDS011;38721;53.098;6.596;2023-04-15T04:55:48;40.65;;;21.02;;
52858;SDS011;38721;53.098;6.596;2023-04-15T04:58:13;34.45;;;18.95;;
52858;SDS011;38721;53.098;6.596;2023-04-15T05:00:39;42.83;;;20.50;;
52858;SDS011;38721;53.098;6.596;2023-04-15T05:03:05;35.50;;;19.38;;
52858;SDS011;38721;53.098;6.596;2023-04-15T05:05:30;34.50;;;18.83;;
52858;SDS011;38721;53.098;6.596;2023-04-15T05:07:56;37.40;;;20.10;;
52858;SDS011;38721;53.098;6.596;2023-04-15T05:10:22;33.45;;;18.67;;
52858;SDS011;38721;53.098;6.596;2023-04-15T05:12:47;32.53;;;18.70;;
52858;SDS011;38721;53.098;6.596;2023-04-15T05:15:13;40.17;;;18.55;;
52858;SDS011;38721;53.098;6.596;2023-04-15T05:17:39;37.13;;;19.65;;
52858;SDS011;38721;53.098;6.596;2023-04-15T05:20:08;34.50;;;18.58;;
52858;SDS011;38721;53.098;6.596;2023-04-15T05:22:34;35.25;;;19.15;;
52858;SDS011;38721;53.098;6.596;2023-04-15T05:25:00;37.92;;;19.25;;
52858;SDS011;38721;53.098;6.596;2023-04-15T05:27:26;34.85;;;18.92;;
52858;SDS011;38721;53.098;6.596;2023-04-15T05:29:52;33.25;;;17.85;;
52858;SDS011;38721;53.098;6.596;2023-04-15T05:32:17;34.10;;;19.58;;
52858;SDS011;38721;53.098;6.596;2023-04-15T05:34:43;32.88;;;19.00;;
52858;SDS011;38721;53.098;6.596;2023-04-15T05:37:09;34.78;;;20.27;;
52858;SDS011;38721;53.098;6.596;2023-04-15T05:39:34;41.88;;;21.33;;
52858;SDS011;38721;53.098;6.596;2023-04-15T05:42:00;39.10;;;21.73;;
52858;SDS011;38721;53.098;6.596;2023-04-15T05:44:26;40.40;;;22.40;;
52858;SDS011;38721;53.098;6.596;2023-04-15T05:46:52;37.08;;;21.55;;
52858;SDS011;38721;53.098;6.596;2023-04-15T05:49:17;35.17;;;20.67;;
52858;SDS011;38721;53.098;6.596;2023-04-15T05:51:43;34.70;;;20.05;;
52858;SDS011;38721;53.098;6.596;2023-04-15T05:54:09;32.85;;;19.35;;
52858;SDS011;38721;53.098;6.596;2023-04-15T05:56:34;33.88;;;18.10;;
52858;SDS011;38721;53.098;6.596;2023-04-15T05:59:03;30.13;;;17.33;;
52858;SDS011;38721;53.098;6.596;2023-04-15T06:01:29;34.33;;;19.40;;
52858;SDS011;38721;53.098;6.596;2023-04-15T06:03:55;29.67;;;17.88;;
52858;SDS011;38721;53.098;6.596;2023-04-15T06:06:20;30.10;;;17.50;;
52858;SDS011;38721;53.098;6.596;2023-04-15T06:08:46;33.35;;;18.77;;
52858;SDS011;38721;53.098;6.596;2023-04-15T06:11:12;31.75;;;17.33;;
52858;SDS011;38721;53.098;6.596;2023-04-15T06:13:38;28.75;;;17.45;;
52858;SDS011;38721;53.098;6.596;2023-04-15T06:16:03;30.05;;;16.85;;
52858;SDS011;38721;53.098;6.596;2023-04-15T06:18:29;30.13;;;17.02;;
52858;SDS011;38721;53.098;6.596;2023-04-15T06:20:55;28.05;;;16.25;;
52858;SDS011;38721;53.098;6.596;2023-04-15T06:23:21;28.67;;;17.52;;
52858;SDS011;38721;53.098;6.596;2023-04-15T06:25:46;28.08;;;16.80;;
52858;SDS011;38721;53.098;6.596;2023-04-15T06:28:12;26.45;;;15.75;;
52858;SDS011;38721;53.098;6.596;2023-04-15T06:30:38;23.52;;;15.13;;
52858;SDS011;38721;53.098;6.596;2023-04-15T06:33:04;23.10;;;15.30;;
52858;SDS011;38721;53.098;6.596;2023-04-15T06:35:30;23.88;;;14.43;;
52858;SDS011;38721;53.098;6.596;2023-04-15T06:37:56;24.80;;;14.70;;
52858;SDS011;38721;53.098;6.596;2023-04-15T06:40:21;22.20;;;14.18;;
52858;SDS011;38721;53.098;6.596;2023-04-15T06:42:47;19.83;;;12.45;;
52858;SDS011;38721;53.098;6.596;2023-04-15T06:45:13;22.40;;;12.73;;
52858;SDS011;38721;53.098;6.596;2023-04-15T06:47:38;19.67;;;12.48;;
52858;SDS011;38721;53.098;6.596;2023-04-15T06:50:04;20.08;;;13.73;;
52858;SDS011;38721;53.098;6.596;2023-04-15T06:52:30;21.17;;;12.40;;
52858;SDS011;38721;53.098;6.596;2023-04-15T06:54:56;18.42;;;11.77;;
52858;SDS011;38721;53.098;6.596;2023-04-15T06:57:23;17.20;;;11.32;;
52858;SDS011;38721;53.098;6.596;2023-04-15T06:59:52;20.20;;;11.75;;
52858;SDS011;38721;53.098;6.596;2023-04-15T07:02:18;18.98;;;11.82;;
52858;SDS011;38721;53.098;6.596;2023-04-15T07:04:45;16.25;;;11.15;;
52858;SDS011;38721;53.098;6.596;2023-04-15T07:07:11;18.75;;;11.25;;
52858;SDS011;38721;53.098;6.596;2023-04-15T07:09:36;15.93;;;10.88;;
52858;SDS011;38721;53.098;6.596;2023-04-15T07:12:02;16.75;;;11.05;;
52858;SDS011;38721;53.098;6.596;2023-04-15T07:14:28;15.52;;;9.55;;
52858;SDS011;38721;53.098;6.596;2023-04-15T07:16:57;15.40;;;9.85;;
52858;SDS011;38721;53.098;6.596;2023-04-15T07:19:22;14.60;;;10.18;;
52858;SDS011;38721;53.098;6.596;2023-04-15T07:21:48;14.90;;;9.75;;
52858;SDS011;38721;53.098;6.596;2023-04-15T07:24:14;14.52;;;9.68;;
52858;SDS011;38721;53.098;6.596;2023-04-15T07:26:42;14.27;;;9.98;;
52858;SDS011;38721;53.098;6.596;2023-04-15T07:29:08;14.25;;;8.98;;
52858;SDS011;38721;53.098;6.596;2023-04-15T07:31:37;15.20;;;9.70;;
52858;SDS011;38721;53.098;6.596;2023-04-15T07:34:05;14.35;;;9.35;;
52858;SDS011;38721;53.098;6.596;2023-04-15T07:36:31;14.98;;;9.63;;
52858;SDS011;38721;53.098;6.596;2023-04-15T07:38:56;14.00;;;9.52;;
52858;SDS011;38721;53.098;6.596;2023-04-15T07:41:22;13.52;;;8.50;;
52858;SDS011;38721;53.098;6.596;2023-04-15T07:43:48;11.15;;;7.47;;
52858;SDS011;38721;53.098;6.596;2023-04-15T07:46:14;13.82;;;8.90;;
52858;SDS011;38721;53.098;6.596;2023-04-15T07:48:40;14.02;;;8.50;;
52858;SDS011;38721;53.098;6.596;2023-04-15T07:51:06;13.02;;;7.88;;
52858;SDS011;38721;53.098;6.596;2023-04-15T07:53:32;12.43;;;7.07;;
52858;SDS011;38721;53.098;6.596;2023-04-15T07:55:58;9.15;;;6.32;;
52858;SDS011;38721;53.098;6.596;2023-04-15T07:58:24;9.65;;;7.25;;
52858;SDS011;38721;53.098;6.596;2023-04-15T08:00:50;10.85;;;7.07;;
52858;SDS011;38721;53.098;6.596;2023-04-15T08:03:16;9.15;;;6.88;;
52858;SDS011;38721;53.098;6.596;2023-04-15T08:05:41;8.70;;;6.20;;
52858;SDS011;38721;53.098;6.596;2023-04-15T08:08:07;10.68;;;6.55;;
52858;SDS011;38721;53.098;6.596;2023-04-15T08:10:32;10.30;;;6.65;;
52858;SDS011;38721;53.098;6.596;2023-04-15T08:12:58;9.90;;;6.10;;
52858;SDS011;38721;53.098;6.596;2023-04-15T08:15:25;8.80;;;6.28;;
52858;SDS011;38721;53.098;6.596;2023-04-15T08:17:51;8.10;;;6.25;;
52858;SDS011;38721;53.098;6.596;2023-04-15T08:20:16;11.13;;;7.97;;
52858;SDS011;38721;53.098;6.596;2023-04-15T08:22:42;13.10;;;7.57;;
52858;SDS011;38721;53.098;6.596;2023-04-15T08:25:08;12.07;;;8.05;;
52858;SDS011;38721;53.098;6.596;2023-04-15T08:27:34;15.38;;;8.45;;
52858;SDS011;38721;53.098;6.596;2023-04-15T08:30:00;12.95;;;8.00;;
52858;SDS011;38721;53.098;6.596;2023-04-15T08:32:26;10.50;;;7.55;;
52858;SDS011;38721;53.098;6.596;2023-04-15T08:34:52;11.70;;;8.25;;
52858;SDS011;38721;53.098;6.596;2023-04-15T08:37:18;10.68;;;6.75;;
52858;SDS011;38721;53.098;6.596;2023-04-15T08:39:44;10.88;;;7.20;;
52858;SDS011;38721;53.098;6.596;2023-04-15T08:42:22;9.90;;;5.90;;
52858;SDS011;38721;53.098;6.596;2023-04-15T08:44:55;9.63;;;7.03;;
52858;SDS011;38721;53.098;6.596;2023-04-15T08:47:28;9.77;;;6.85;;
52858;SDS011;38721;53.098;6.596;2023-04-15T08:50:01;9.35;;;6.13;;
52858;SDS011;38721;53.098;6.596;2023-04-15T08:52:29;7.40;;;6.25;;
52858;SDS011;38721;53.098;6.596;2023-04-15T08:54:56;9.93;;;5.75;;
52858;SDS011;38721;53.098;6.596;2023-04-15T08:57:27;9.10;;;5.40;;
52858;SDS011;38721;53.098;6.596;2023-04-15T08:59:54;5.97;;;4.28;;
52858;SDS011;38721;53.098;6.596;2023-04-15T09:02:24;7.60;;;4.82;;
52858;SDS011;38721;53.098;6.596;2023-04-15T09:04:51;7.28;;;4.45;;
52858;SDS011;38721;53.098;6.596;2023-04-15T09:07:20;8.45;;;4.80;;
52858;SDS011;38721;53.098;6.596;2023-04-15T09:09:46;8.30;;;4.50;;
52858;SDS011;38721;53.098;6.596;2023-04-15T09:12:12;6.43;;;3.58;;
52858;SDS011;38721;53.098;6.596;2023-04-15T09:14:42;7.15;;;3.90;;
52858;SDS011;38721;53.098;6.596;2023-04-15T09:17:09;6.18;;;3.67;;
52858;SDS011;38721;53.098;6.596;2023-04-15T09:19:35;8.70;;;2.83;;
52858;SDS011;38721;53.098;6.596;2023-04-15T09:22:01;5.50;;;3.17;;
52858;SDS011;38721;53.098;6.596;2023-04-15T09:24:37;5.40;;;2.95;;
52858;SDS011;38721;53.098;6.596;2023-04-15T09:27:05;5.28;;;3.33;;
52858;SDS011;38721;53.098;6.596;2023-04-15T09:29:31;5.20;;;3.25;;
52858;SDS011;38721;53.098;6.596;2023-04-15T09:32:08;5.30;;;3.00;;
52858;SDS011;38721;53.098;6.596;2023-04-15T09:34:37;7.00;;;3.38;;
52858;SDS011;38721;53.098;6.596;2023-04-15T09:37:03;6.43;;;3.38;;
52858;SDS011;38721;53.098;6.596;2023-04-15T09:39:48;4.13;;;2.88;;
52858;SDS011;38721;53.098;6.596;2023-04-15T09:42:17;3.30;;;2.50;;
52858;SDS011;38721;53.098;6.596;2023-04-15T09:44:50;5.22;;;2.88;;
52858;SDS011;38721;53.098;6.596;2023-04-15T09:47:25;3.85;;;2.97;;
52858;SDS011;38721;53.098;6.596;2023-04-15T09:49:56;3.92;;;2.20;;
52858;SDS011;38721;53.098;6.596;2023-04-15T09:52:22;2.30;;;2.05;;
52858;SDS011;38721;53.098;6.596;2023-04-15T09:54:49;3.92;;;2.55;;
52858;SDS011;38721;53.098;6.596;2023-04-15T09:57:20;3.58;;;2.28;;
52858;SDS011;38721;53.098;6.596;2023-04-15T09:59:46;4.28;;;2.30;;
52858;SDS011;38721;53.098;6.596;2023-04-15T10:02:12;3.90;;;2.80;;
52858;SDS011;38721;53.098;6.596;2023-04-15T10:04:39;3.10;;;2.47;;
52858;SDS011;38721;53.098;6.596;2023-04-15T10:07:07;3.22;;;2.50;;
52858;SDS011;38721;53.098;6.596;2023-04-15T10:09:34;5.72;;;2.58;;
52858;SDS011;38721;53.098;6.596;2023-04-15T10:12:01;4.10;;;2.30;;
52858;SDS011;38721;53.098;6.596;2023-04-15T10:14:30;5.20;;;2.78;;
52858;SDS011;38721;53.098;6.596;2023-04-15T10:16:58;3.05;;;2.40;;
52858;SDS011;38721;53.098;6.596;2023-04-15T10:19:26;3.45;;;2.22;;
52858;SDS011;38721;53.098;6.596;2023-04-15T10:21:55;4.60;;;2.55;;
52858;SDS011;38721;53.098;6.596;2023-04-15T10:24:22;4.07;;;2.33;;
52858;SDS011;38721;53.098;6.596;2023-04-15T10:26:50;3.78;;;1.98;;
52858;SDS011;38721;53.098;6.596;2023-04-15T10:29:16;4.47;;;2.08;;
52858;SDS011;38721;53.098;6.596;2023-04-15T10:31:42;3.72;;;2.30;;
52858;SDS011;38721;53.098;6.596;2023-04-15T10:34:08;3.28;;;2.08;;
52858;SDS011;38721;53.098;6.596;2023-04-15T10:36:35;3.83;;;2.03;;
52858;SDS011;38721;53.098;6.596;2023-04-15T10:39:01;4.00;;;2.47;;
52858;SDS011;38721;53.098;6.596;2023-04-15T10:41:47;5.22;;;2.80;;
52858;SDS011;38721;53.098;6.596;2023-04-15T10:44:34;4.90;;;2.45;;
52858;SDS011;38721;53.098;6.596;2023-04-15T10:47:07;6.05;;;2.70;;
52858;SDS011;38721;53.098;6.596;2023-04-15T10:49:42;5.07;;;2.55;;
52858;SDS011;38721;53.098;6.596;2023-04-15T10:52:13;4.60;;;2.40;;
52858;SDS011;38721;53.098;6.596;2023-04-15T10:54:40;4.85;;;2.70;;
52858;SDS011;38721;53.098;6.596;2023-04-15T10:57:07;4.93;;;2.47;;
52858;SDS011;38721;53.098;6.596;2023-04-15T11:00:00;6.22;;;2.70;;
52858;SDS011;38721;53.098;6.596;2023-04-15T11:02:42;5.10;;;3.08;;
52858;SDS011;38721;53.098;6.596;2023-04-15T11:05:11;7.57;;;3.03;;
52858;SDS011;38721;53.098;6.596;2023-04-15T11:07:39;8.23;;;2.88;;
52858;SDS011;38721;53.098;6.596;2023-04-15T11:12:41;6.55;;;3.03;;
52858;SDS011;38721;53.098;6.596;2023-04-15T11:15:24;5.65;;;3.38;;
52858;SDS011;38721;53.098;6.596;2023-04-15T11:17:51;7.38;;;3.42;;
52858;SDS011;38721;53.098;6.596;2023-04-15T11:20:17;6.63;;;2.72;;
52858;SDS011;38721;53.098;6.596;2023-04-15T11:22:50;9.23;;;3.08;;
52858;SDS011;38721;53.098;6.596;2023-04-15T11:25:30;7.45;;;3.05;;
52858;SDS011;38721;53.098;6.596;2023-04-15T11:27:57;5.53;;;3.08;;
52858;SDS011;38721;53.098;6.596;2023-04-15T11:30:27;5.97;;;2.88;;
52858;SDS011;38721;53.098;6.596;2023-04-15T11:32:57;5.82;;;3.10;;
52858;SDS011;38721;53.098;6.596;2023-04-15T11:35:23;8.18;;;3.45;;
52858;SDS011;38721;53.098;6.596;2023-04-15T11:37:49;7.03;;;2.95;;
52858;SDS011;38721;53.098;6.596;2023-04-15T11:40:16;4.63;;;2.33;;
52858;SDS011;38721;53.098;6.596;2023-04-15T11:42:48;4.93;;;2.40;;
52858;SDS011;38721;53.098;6.596;2023-04-15T11:45:37;5.30;;;2.35;;
52858;SDS011;38721;53.098;6.596;2023-04-15T11:48:17;4.55;;;2.55;;
52858;SDS011;38721;53.098;6.596;2023-04-15T11:50:43;6.95;;;2.30;;
52858;SDS011;38721;53.098;6.596;2023-04-15T11:53:10;6.63;;;2.28;;
52858;SDS011;38721;53.098;6.596;2023-04-15T11:55:44;6.82;;;2.67;;
52858;SDS011;38721;53.098;6.596;2023-04-15T11:58:16;7.75;;;2.88;;
52858;SDS011;38721;53.098;6.596;2023-04-15T12:00:47;7.05;;;2.63;;
52858;SDS011;38721;53.098;6.596;2023-04-15T12:08:55;6.88;;;2.45;;
52858;SDS011;38721;53.098;6.596;2023-04-15T12:13:56;9.43;;;2.50;;
52858;SDS011;38721;53.098;6.596;2023-04-15T12:16:23;8.10;;;2.55;;
52858;SDS011;38721;53.098;6.596;2023-04-15T12:18:50;8.80;;;3.08;;
52858;SDS011;38721;53.098;6.596;2023-04-15T12:21:20;6.03;;;2.50;;
52858;SDS011;38721;53.098;6.596;2023-04-15T12:23:50;6.78;;;2.50;;
52858;SDS011;38721;53.098;6.596;2023-04-15T12:26:16;9.15;;;2.45;;
52858;SDS011;38721;53.098;6.596;2023-04-15T12:28:43;10.48;;;3.22;;
52858;SDS011;38721;53.098;6.596;2023-04-15T12:31:12;5.78;;;2.30;;
52858;SDS011;38721;53.098;6.596;2023-04-15T12:33:38;5.90;;;2.30;;
52858;SDS011;38721;53.098;6.596;2023-04-15T12:36:04;6.22;;;2.10;;
52858;SDS011;38721;53.098;6.596;2023-04-15T12:38:33;6.00;;;2.22;;
52858;SDS011;38721;53.098;6.596;2023-04-15T12:40:59;6.95;;;2.85;;
52858;SDS011;38721;53.098;6.596;2023-04-15T12:43:24;10.65;;;2.85;;
52858;SDS011;38721;53.098;6.596;2023-04-15T12:45:52;9.05;;;2.75;;
52858;SDS011;38721;53.098;6.596;2023-04-15T12:48:18;7.82;;;2.70;;
52858;SDS011;38721;53.098;6.596;2023-04-15T12:50:44;8.15;;;2.85;;
52858;SDS011;38721;53.098;6.596;2023-04-15T12:53:09;7.43;;;2.15;;
52858;SDS011;38721;53.098;6.596;2023-04-15T12:55:35;5.20;;;2.15;;
52858;SDS011;38721;53.098;6.596;2023-04-15T12:58:00;7.53;;;2.33;;
52858;SDS011;38721;53.098;6.596;2023-04-15T13:00:26;7.05;;;2.47;;
52858;SDS011;38721;53.098;6.596;2023-04-15T13:02:55;6.03;;;2.17;;
52858;SDS011;38721;53.098;6.596;2023-04-15T13:05:21;6.28;;;2.22;;
52858;SDS011;38721;53.098;6.596;2023-04-15T13:07:47;8.40;;;2.40;;
52858;SDS011;38721;53.098;6.596;2023-04-15T13:10:12;6.68;;;2.20;;
52858;SDS011;38721;53.098;6.596;2023-04-15T13:12:41;7.03;;;2.08;;
52858;SDS011;38721;53.098;6.596;2023-04-15T13:15:06;11.73;;;2.70;;
52858;SDS011;38721;53.098;6.596;2023-04-15T13:17:35;7.88;;;2.53;;
52858;SDS011;38721;53.098;6.596;2023-04-15T13:20:00;11.60;;;2.78;;
52858;SDS011;38721;53.098;6.596;2023-04-15T13:22:26;12.00;;;2.70;;
52858;SDS011;38721;53.098;6.596;2023-04-15T13:24:52;6.82;;;2.40;;
52858;SDS011;38721;53.098;6.596;2023-04-15T13:27:17;8.75;;;2.65;;
52858;SDS011;38721;53.098;6.596;2023-04-15T13:29:43;7.57;;;2.33;;
52858;SDS011;38721;53.098;6.596;2023-04-15T13:32:09;6.35;;;2.00;;
52858;SDS011;38721;53.098;6.596;2023-04-15T13:34:35;6.95;;;2.50;;
52858;SDS011;38721;53.098;6.596;2023-04-15T13:37:07;6.88;;;2.72;;
52858;SDS011;38721;53.098;6.596;2023-04-15T13:39:36;9.32;;;2.90;;
52858;SDS011;38721;53.098;6.596;2023-04-15T13:42:01;8.60;;;2.40;;
52858;SDS011;38721;53.098;6.596;2023-04-15T13:44:27;10.38;;;3.00;;
52858;SDS011;38721;53.098;6.596;2023-04-15T13:46:53;7.07;;;2.40;;
52858;SDS011;38721;53.098;6.596;2023-04-15T13:49:19;5.90;;;2.30;;
52858;SDS011;38721;53.098;6.596;2023-04-15T13:51:45;9.07;;;2.50;;
52858;SDS011;38721;53.098;6.596;2023-04-15T13:54:11;4.95;;;2.20;;
52858;SDS011;38721;53.098;6.596;2023-04-15T13:56:36;10.32;;;2.60;;
52858;SDS011;38721;53.098;6.596;2023-04-15T13:59:03;11.40;;;2.50;;
52858;SDS011;38721;53.098;6.596;2023-04-15T14:01:28;7.68;;;2.30;;
52858;SDS011;38721;53.098;6.596;2023-04-15T14:03:54;7.60;;;2.70;;
52858;SDS011;38721;53.098;6.596;2023-04-15T14:06:20;6.80;;;2.55;;
52858;SDS011;38721;53.098;6.596;2023-04-15T14:08:46;10.35;;;2.97;;
52858;SDS011;38721;53.098;6.596;2023-04-15T14:11:12;8.68;;;2.72;;
52858;SDS011;38721;53.098;6.596;2023-04-15T14:13:37;6.53;;;2.35;;
52858;SDS011;38721;53.098;6.596;2023-04-15T14:16:03;6.50;;;2.45;;
52858;SDS011;38721;53.098;6.596;2023-04-15T14:18:29;10.77;;;2.72;;
52858;SDS011;38721;53.098;6.596;2023-04-15T14:20:55;8.88;;;2.83;;
52858;SDS011;38721;53.098;6.596;2023-04-15T14:23:21;5.55;;;2.38;;
52858;SDS011;38721;53.098;6.596;2023-04-15T14:25:47;10.07;;;2.80;;
52858;SDS011;38721;53.098;6.596;2023-04-15T14:28:14;9.60;;;3.08;;
52858;SDS011;38721;53.098;6.596;2023-04-15T14:30:40;13.15;;;3.20;;
52858;SDS011;38721;53.098;6.596;2023-04-15T14:33:05;15.10;;;3.35;;
52858;SDS011;38721;53.098;6.596;2023-04-15T14:35:31;8.80;;;3.10;;
52858;SDS011;38721;53.098;6.596;2023-04-15T14:38:00;11.95;;;3.67;;
52858;SDS011;38721;53.098;6.596;2023-04-15T14:40:25;13.50;;;3.65;;
52858;SDS011;38721;53.098;6.596;2023-04-15T14:42:51;9.18;;;3.30;;
52858;SDS011;38721;53.098;6.596;2023-04-15T14:45:17;7.70;;;2.60;;